Detall de PIREP

Printer-friendly versionPDF version

[2008/12/27 12:56:00]
Flight IATA:CT1004
Pilot Number:026
Company ICAO:CAT
Aircraft Type:B75F/E
PAX:0
Departing Airport: EDDS
Destination Airport: LEBL
Alternate Airport:LEPA
Online: VATSIM
Route:ROTWE Y126 TUBLO N850 NATOR UN869 MILPA UN852 MAMES UN975 BISBA
Flight Level:FL330
No Slew and time accel
No pause
Crash detect
Detect pilot in Cockpit between each 30 and 45 minutes
12:56 Zero fuel Weight: 234680 Lbs, Fuel Weight: 21999 Lbs
12:56 VATSIM:EDDS 271220Z 09010KT 9999 OVC025 M01/M06 Q1031 NOSIG
12:56 VATSIM:LEBL 271230Z 08016KT 9000 BKN017 BKN030 13/10 Q1017 NOSIG
12:56 VOICE CATALONIAN / X-MAS CHARTER
13:04 Parking Brakes off
13:12 Take-off
13:12 Take off Weight: 255358 Lbs
13:12 Wind: 080º @ 010 Knots Heading: 074º
13:12 POS N48º 41´ 25´´ E009º 13´ 30´´
13:12 Flaps:3 at 179 Knots
13:12 Gear Up: 182 Knots
13:13 Flaps:2 at 169 Knots
13:13 Flaps:1 at 195 Knot
s
13:13 Flaps:0 at 199 Knots
13:27 Wind:046º@038 Knots Heading: 206º Ground Speed: 485 Knots Altitude 28310 ft
13:35 TOC
13:35 Fuel Weight: 14455 Lb
13:42 Wind:030º@039 Knots Heading: 229º Ground Speed: 492 Knots Altitude 33346 ft
13:57 Wind:031º@026 Knots Heading: 191º Ground Speed: 488 Knots Altitude 33287 ft
14:12 Wind:047º@031 Knots Heading: 213º Ground Speed: 491 Knots Altitude 32965 ft
14:12 TOD
14:12 Fuel Weight: 8628 Lb
14:27 Wind:050º@022 Knots Heading: 273º Ground Speed: 368 Knots Altitude 12408 ft
14:41 Gear Down: 187 Knots
14:41 Flaps:2 at 154 Knots
14:42 Wind:051º@015 Knots Heading: 060º Ground Speed: 158 Knots Altitude 2454 ft
14:42 Flaps:3 at 169 Knots
14:43 Flaps:4 at 158 Knots
14:43 Gear Up: 130 Knots
14:44 Flaps:3 at 167 Knots
14:44 Flaps:2 at 181 Knots
14:44 Flaps:1 at 222 Knots
14:45 Flaps:0 at 274 Knots
14:57 Wind:053º@012 Knots Headin
g: 081º Ground Speed: 228 Knots Altitude 2214 ft
14:57 Flaps:1 at 232 Knots
14:57 Gear Down: 231 Knots
14:58 Flaps:2 at 193 Knots
14:58 Flaps:3 at 195 Knots
14:58 Flaps:4 at 184 Knots
15:01 Flaps:5 at 181 Knots
15:01 TouchDown:Rate -677 ft/min Speed: 169 Knots
15:02 VATSIM:LEBL 271430Z 05015KT 6000 -SHRA BKN017 BKN026 11/09 Q1017 NOSIG
15:02 Land
15:02 Wind:083º@013 Knots
15:02 Heading: 067º
15:02 Flight Duration: 01:50
15:02 Landing Weight: 237226 Lbs
15:02 POS N41º 17´ 57´´ E002º 05´ 07´´
15:04 Parking brakes on
15:04 Block to Block Duration: 02:00
15:04 Final Fuel: 2250 Lbls
15:04 Spent Fuel: 19748 Lbls
15:04 Flight Length: 693 NM
15:04 TOD Land Length: 236 NM

Exportar CSV

Powered by Drupal - Modified by Danger4k